Time;durP1;ratioP1;P1;durP2;ratioP2;P2;SDS_P1;SDS_P2;PMS_P1;PMS_P2;Temp;Humidity;BMP_temperature;BMP_pressure;BME280_temperature;BME280_humidity;BME280_pressure;Samples;Min_cycle;Max_cycle;Signal;HPM_P1;HPM_P2
2019/04/12 00:02:14;;;;;;;24.5;17.7;;;;;;;4.97;55.39063;961.6344;;;;
2019/04/12 00:04:19;;;;;;;23.7;17.4;;;;;;;4.92;56.04492;961.6066;;;;
2019/04/12 00:06:44;;;;;;;22.8;16.4;;;;;;;4.91;56.14453;961.6892;;;;
2019/04/12 00:09:09;;;;;;;23;16.9;;;;;;;4.96;55.60645;961.6775;;;;
2019/04/12 00:11:34;;;;;;;25.1;16.7;;;;;;;4.89;55.91504;961.7335;;;;
2019/04/12 00:13:59;;;;;;;22.9;16.8;;;;;;;4.76;56.59082;961.7286;;;;
2019/04/12 00:16:24;;;;;;;20.9;16.3;;;;;;;4.73;56.37109;961.6571;;;;
2019/04/12 00:18:49;;;;;;;22;15.8;;;;;;;4.67;56.60254;961.6392;;;;
2019/04/12 00:21:15;;;;;;;23.4;15.7;;;;;;;4.68;56.53516;961.7073;;;;
2019/04/12 00:23:40;;;;;;;22.7;15.5;;;;;;;4.77;55.94434;961.6594;;;;
2019/04/12 00:26:05;;;;;;;19;14.3;;;;;;;4.78;56.17383;961.6753;;;;
2019/04/12 00:28:30;;;;;;;19.5;14.9;;;;;;;4.61;57.13867;961.7033;;;;
2019/04/12 00:30:55;;;;;;;20.6;15;;;;;;;4.51;58.1123;961.6873;;;;
2019/04/12 00:33:20;;;;;;;17.6;13.8;;;;;;;4.55;57.25488;961.6853;;;;
2019/04/12 00:35:46;;;;;;;18.7;13.8;;;;;;;4.45;57.27539;961.6828;;;;
2019/04/12 00:38:11;;;;;;;19.9;13.5;;;;;;;4.51;56.10254;961.6492;;;;
2019/04/12 00:40:37;;;;;;;18.7;13.2;;;;;;;4.38;56.54004;961.657;;;;
2019/04/12 00:43:02;;;;;;;20.3;14;;;;;;;4.25;57.02246;961.6473;;;;
2019/04/12 00:45:27;;;;;;;18.9;14.2;;;;;;;4.15;57.68945;961.623;;;;
2019/04/12 00:47:52;;;;;;;21.7;13.9;;;;;;;4.09;58.84961;961.6777;;;;
2019/04/12 00:50:17;;;;;;;20.4;14.3;;;;;;;4.09;58.13574;961.6131;;;;
2019/04/12 00:52:43;;;;;;;18.1;13.3;;;;;;;4.1;57.73926;961.6431;;;;
2019/04/12 00:55:08;;;;;;;17.1;12.8;;;;;;;4.14;57.40332;961.6153;;;;
2019/04/12 00:57:33;;;;;;;17.2;13.3;;;;;;;4.09;58.31738;961.5616;;;;
2019/04/12 00:59:58;;;;;;;19.9;13.9;;;;;;;3.93;57.97656;961.5839;;;;
2019/04/12 01:02:34;;;;;;;18.9;12.9;;;;;;;3.99;57.45215;961.5809;;;;
2019/04/12 01:04:52;;;;;;;20.5;12.8;;;;;;;3.76;59.82227;961.5553;;;;
2019/04/12 01:07:13;;;;;;;18.1;13.3;;;;;;;3.64;59.74805;961.5148;;;;
2019/04/12 01:09:40;;;;;;;17.9;13.3;;;;;;;3.65;62.08398;961.6086;;;;
2019/04/12 01:12:05;;;;;;;17.4;12.7;;;;;;;3.82;59.32031;961.5864;;;;
2019/04/12 01:14:30;;;;;;;17.4;12.2;;;;;;;3.8;59.09082;961.5701;;;;
2019/04/12 01:16:55;;;;;;;18;12.2;;;;;;;3.72;58.31152;961.6133;;;;
2019/04/12 01:19:20;;;;;;;17.2;12;;;;;;;3.57;58.50488;961.6003;;;;
2019/04/12 01:21:46;;;;;;;16.7;11.7;;;;;;;3.36;61.10156;961.6166;;;;
2019/04/12 01:24:11;;;;;;;16.4;11.3;;;;;;;3.48;59.40918;961.6658;;;;
2019/04/12 01:26:36;;;;;;;17.5;12.2;;;;;;;3.25;60.53125;961.6351;;;;
2019/04/12 01:29:01;;;;;;;15.7;11.5;;;;;;;3.19;60.94238;961.6726;;;;
2019/04/12 01:31:26;;;;;;;15.9;12.4;;;;;;;3.13;61.96289;961.676;;;;
2019/04/12 01:33:51;;;;;;;16.9;12;;;;;;;3.17;62.4209;961.6741;;;;
2019/04/12 01:36:16;;;;;;;14;11.3;;;;;;;3.29;61.24902;961.6546;;;;
2019/04/12 01:38:41;;;;;;;17.1;11.5;;;;;;;3.17;60.28223;961.6998;;;;
2019/04/12 01:41:07;;;;;;;14.8;10.8;;;;;;;3.31;60.03125;961.6406;;;;
2019/04/12 01:43:32;;;;;;;15.3;10.9;;;;;;;3.05;61.09277;961.6375;;;;
2019/04/12 01:45:57;;;;;;;15.5;11;;;;;;;3.13;60.50391;961.6887;;;;
2019/04/12 01:48:22;;;;;;;14.4;10.5;;;;;;;3.17;60.47559;961.588;;;;
2019/04/12 01:50:47;;;;;;;14.7;11;;;;;;;3.09;61.00586;961.6225;;;;
2019/04/12 01:53:12;;;;;;;13.6;10.9;;;;;;;2.96;61.18066;961.6337;;;;
2019/04/12 01:55:37;;;;;;;14.4;10.4;;;;;;;2.88;60.77344;961.5995;;;;
2019/04/12 01:58:03;;;;;;;16.7;10.6;;;;;;;2.87;61.40527;961.5744;;;;
2019/04/12 02:00:28;;;;;;;18.8;11.1;;;;;;;2.83;61.53516;961.5504;;;;
2019/04/12 02:02:53;;;;;;;14.8;10.8;;;;;;;2.91;61.85059;961.5037;;;;
2019/04/12 02:05:18;;;;;;;14.6;10.7;;;;;;;2.97;62.3125;961.4875;;;;
2019/04/12 02:07:43;;;;;;;16.4;10.4;;;;;;;3;60.79102;961.5028;;;;
2019/04/12 02:10:08;;;;;;;15.6;11.1;;;;;;;2.96;61.64355;961.5652;;;;
2019/04/12 02:12:34;;;;;;;14.6;10.6;;;;;;;2.97;61.21582;961.5302;;;;
2019/04/12 02:14:59;;;;;;;13.7;10.2;;;;;;;3.06;60.3916;961.5258;;;;
2019/04/12 02:17:24;;;;;;;15.7;10.7;;;;;;;2.94;60.71387;961.5963;;;;
2019/04/12 02:19:49;;;;;;;15.3;10.9;;;;;;;2.76;61.18457;961.6191;;;;
2019/04/12 02:22:14;;;;;;;14.4;10.1;;;;;;;2.75;61.77148;961.5508;;;;
2019/04/12 02:24:39;;;;;;;14.2;10.7;;;;;;;2.68;61.44531;961.5071;;;;
2019/04/12 02:27:04;;;;;;;14;10.4;;;;;;;2.65;62.83008;961.5644;;;;
2019/04/12 02:29:29;;;;;;;16.5;10.8;;;;;;;2.51;62.70703;961.5545;;;;
2019/04/12 02:34:21;;;;;;;15.3;10.8;;;;;;;2.49;63.66406;961.5302;;;;
2019/04/12 02:36:46;;;;;;;13.4;10.8;;;;;;;2.41;64.79297;961.5644;;;;
2019/04/12 02:39:11;;;;;;;14.5;10.9;;;;;;;2.47;64.94824;961.4799;;;;
2019/04/12 02:41:36;;;;;;;15.1;10.6;;;;;;;2.48;63.86816;961.5219;;;;
2019/04/12 02:44:01;;;;;;;13.9;9.8;;;;;;;2.48;62.37598;961.522;;;;
2019/04/12 02:46:45;;;;;;;13;10.1;;;;;;;2.49;62.68164;961.5132;;;;
2019/04/12 02:49:09;;;;;;;15.7;10.4;;;;;;;2.55;62.23926;961.5439;;;;
2019/04/12 02:51:49;;;;;;;14.7;10.3;;;;;;;2.66;62.3457;961.5597;;;;
2019/04/12 02:54:01;;;;;;;12.6;9.8;;;;;;;2.48;63.4375;961.5478;;;;
2019/04/12 02:56:31;;;;;;;15.2;10;;;;;;;2.57;62.51465;961.5258;;;;
2019/04/12 02:58:49;;;;;;;16;10.4;;;;;;;2.47;63.17578;961.5524;;;;
2019/04/12 03:01:11;;;;;;;15.6;10.7;;;;;;;2.36;63.38477;961.5239;;;;
2019/04/12 03:03:35;;;;;;;13;10;;;;;;;2.45;63.71582;961.5664;;;;
2019/04/12 03:06:00;;;;;;;13;10.1;;;;;;;2.36;62.84277;961.5197;;;;
2019/04/12 03:08:25;;;;;;;14.1;10.7;;;;;;;2.47;63.38965;961.4927;;;;
2019/04/12 03:10:51;;;;;;;14.2;10.1;;;;;;;2.45;63.97559;961.5149;;;;
2019/04/12 03:13:16;;;;;;;16.3;10.4;;;;;;;2.38;62.90332;961.5058;;;;
2019/04/12 03:15:41;;;;;;;15.2;10.3;;;;;;;2.39;63.90918;961.5439;;;;
2019/04/12 03:18:06;;;;;;;14.1;10.2;;;;;;;2.5;62.28809;961.5338;;;;
2019/04/12 03:20:31;;;;;;;14.4;10;;;;;;;2.44;62.61914;961.5541;;;;
2019/04/12 03:22:56;;;;;;;14.6;10;;;;;;;2.34;63.17871;961.5083;;;;
2019/04/12 03:25:21;;;;;;;14.8;10.2;;;;;;;2.4;62.86035;961.5648;;;;
2019/04/12 03:27:47;;;;;;;15.2;9.7;;;;;;;2.45;61.83984;961.5494;;;;
2019/04/12 03:30:12;;;;;;;14.3;10.3;;;;;;;2.39;64.1582;961.5609;;;;
2019/04/12 03:32:37;;;;;;;14;10.4;;;;;;;2.34;64.87402;961.585;;;;
2019/04/12 03:35:02;;;;;;;13.4;10.1;;;;;;;2.37;64.76465;961.5664;;;;
2019/04/12 03:37:27;;;;;;;15.7;10.4;;;;;;;2.38;64.75488;961.5315;;;;
2019/04/12 03:39:52;;;;;;;14.1;9.9;;;;;;;2.43;63.0918;961.5287;;;;
2019/04/12 03:42:17;;;;;;;13.1;9.7;;;;;;;2.61;62.12402;961.5881;;;;
2019/04/12 03:44:43;;;;;;;14.4;10;;;;;;;2.59;63.92773;961.5722;;;;
2019/04/12 03:47:08;;;;;;;13.8;9.3;;;;;;;2.76;60.87988;961.5418;;;;
2019/04/12 03:49:33;;;;;;;13;9.8;;;;;;;2.78;62.18164;961.5876;;;;
2019/04/12 03:51:58;;;;;;;13.4;9.5;;;;;;;2.73;62.63867;961.5435;;;;
2019/04/12 03:54:23;;;;;;;14.8;10.3;;;;;;;2.66;62.73145;961.5941;;;;
2019/04/12 03:56:48;;;;;;;14.4;10;;;;;;;2.66;61.63477;961.5639;;;;
2019/04/12 04:02:29;;;;;;;14.1;10;;;;;;;2.76;62.98145;961.5248;;;;
2019/04/12 04:04:54;;;;;;;13.4;9.5;;;;;;;2.92;61.16406;961.5156;;;;
2019/04/12 04:07:19;;;;;;;13.2;10;;;;;;;2.88;60.74902;961.5183;;;;
2019/04/12 04:09:44;;;;;;;14.1;10;;;;;;;2.74;60.6748;961.5553;;;;
2019/04/12 04:12:09;;;;;;;13.4;9.7;;;;;;;2.75;61.7373;961.5851;;;;
2019/04/12 04:14:34;;;;;;;15.4;10.5;;;;;;;2.53;61.36719;961.4895;;;;
2019/04/12 04:17:28;;;;;;;14;9.9;;;;;;;2.48;62.13867;961.5736;;;;
2019/04/12 04:19:27;;;;;;;14.7;10.1;;;;;;;2.53;61.7959;961.5538;;;;
2019/04/12 04:21:52;;;;;;;13.3;10.1;;;;;;;2.5;61.50879;961.5724;;;;
2019/04/12 04:24:25;;;;;;;15.6;10.6;;;;;;;2.38;62.84668;961.6385;;;;
2019/04/12 04:29:31;;;;;;;14.6;10.8;;;;;;;2.3;62.8457;961.6253;;;;
2019/04/12 04:32:34;;;;;;;14;10.2;;;;;;;2.38;62.66602;961.6216;;;;
2019/04/12 04:34:12;;;;;;;14;9.6;;;;;;;2.54;61.11816;961.5703;;;;
2019/04/12 04:36:37;;;;;;;16;10.1;;;;;;;2.33;62.39844;961.5856;;;;
2019/04/12 04:39:04;;;;;;;13.2;10.2;;;;;;;2.36;62.20996;961.6355;;;;
2019/04/12 04:41:28;;;;;;;13.9;10.1;;;;;;;2.49;62.06055;961.5775;;;;
2019/04/12 04:43:53;;;;;;;17.1;10.3;;;;;;;2.38;63.35449;961.6431;;;;
2019/04/12 04:46:18;;;;;;;16.1;10.3;;;;;;;2.48;62.9082;961.6248;;;;
2019/04/12 04:48:43;;;;;;;14.9;10.4;;;;;;;2.54;61.43457;961.6177;;;;
2019/04/12 04:51:12;;;;;;;13.6;10.2;;;;;;;2.53;62.82422;961.7166;;;;
2019/04/12 04:53:33;;;;;;;14.1;10.4;;;;;;;2.48;64.46484;961.6934;;;;
2019/04/12 04:55:59;;;;;;;13.7;10;;;;;;;2.61;61.41211;961.6781;;;;
2019/04/12 04:58:24;;;;;;;12;9.5;;;;;;;2.48;63.14453;961.7104;;;;
2019/04/12 05:00:49;;;;;;;14.8;9.5;;;;;;;2.69;61.29883;961.7728;;;;
2019/04/12 05:03:14;;;;;;;14.1;10.1;;;;;;;2.3;62.99316;961.7071;;;;
2019/04/12 05:05:39;;;;;;;13.3;9.7;;;;;;;2.4;63.77539;961.7707;;;;
2019/04/12 05:08:04;;;;;;;14.7;10.4;;;;;;;2.28;63.27246;961.8022;;;;
2019/04/12 05:10:29;;;;;;;12.6;9.4;;;;;;;2.36;63.26074;961.8198;;;;
2019/04/12 05:12:55;;;;;;;14;10.2;;;;;;;2.34;63.48535;961.8166;;;;
2019/04/12 05:15:19;;;;;;;15;10.4;;;;;;;2.36;63.03613;961.8367;;;;
2019/04/12 05:17:45;;;;;;;16.3;11;;;;;;;2.16;63.48047;961.8383;;;;
2019/04/12 05:20:11;;;;;;;13.6;10;;;;;;;2.23;63.02734;961.8177;;;;
2019/04/12 05:22:36;;;;;;;15.2;10.4;;;;;;;2.32;62.69043;961.8691;;;;
2019/04/12 05:25:01;;;;;;;13.9;10.4;;;;;;;2.27;63.39551;961.8373;;;;
2019/04/12 05:27:26;;;;;;;15.2;11.1;;;;;;;2.15;65.0918;961.8477;;;;
2019/04/12 05:29:51;;;;;;;15.5;10.7;;;;;;;2.13;64.59277;961.9258;;;;
2019/04/12 05:32:16;;;;;;;15;10.7;;;;;;;2.08;63.96387;961.877;;;;
2019/04/12 05:34:42;;;;;;;15.9;10.8;;;;;;;2.11;64.13867;961.8795;;;;
2019/04/12 05:37:07;;;;;;;14.6;10.6;;;;;;;2.05;65.65234;961.8826;;;;
2019/04/12 05:39:32;;;;;;;16.7;11.9;;;;;;;2.17;65.23145;961.9063;;;;
2019/04/12 05:41:57;;;;;;;15;11.3;;;;;;;2.11;65.04102;961.8795;;;;
2019/04/12 05:44:22;;;;;;;16.7;10.8;;;;;;;2.14;64.67285;961.8954;;;;
2019/04/12 05:51:37;;;;;;;16.5;11.4;;;;;;;2.35;64.50098;961.902;;;;
2019/04/12 05:54:03;;;;;;;14.9;11.1;;;;;;;2.22;65.0918;961.8486;;;;
2019/04/12 05:56:28;;;;;;;15.6;10.7;;;;;;;2.22;64.76465;961.9;;;;
2019/04/12 05:59:54;;;;;;;15.5;11.2;;;;;;;2.16;66.22168;961.933;;;;
2019/04/12 06:03:45;;;;;;;16;11.1;;;;;;;2.13;65.10059;961.9088;;;;
2019/04/12 06:06:10;;;;;;;18.3;11.1;;;;;;;2.15;64.67578;961.9247;;;;
2019/04/12 06:08:35;;;;;;;16;11;;;;;;;2.28;63.59863;961.9483;;;;
2019/04/12 06:11:00;;;;;;;17.4;11.3;;;;;;;2.04;66.14746;961.9515;;;;
2019/04/12 06:13:25;;;;;;;19.3;11.9;;;;;;;2.01;64.99219;961.9489;;;;
2019/04/12 06:15:50;;;;;;;14.7;10.7;;;;;;;2.19;64.80566;961.9314;;;;
2019/04/12 06:18:18;;;;;;;15.2;11.4;;;;;;;2.27;64.42285;961.9613;;;;
2019/04/12 06:20:57;;;;;;;16.9;11.2;;;;;;;2.26;64.88379;962.0261;;;;
2019/04/12 06:23:08;;;;;;;16.4;11.7;;;;;;;2.14;65.47363;961.9597;;;;
2019/04/12 06:25:37;;;;;;;17.8;12.3;;;;;;;2.14;65.84766;962.0452;;;;
2019/04/12 06:27:58;;;;;;;16.8;11.4;;;;;;;2.16;66.12109;961.9927;;;;
2019/04/12 06:30:30;;;;;;;18.7;12.2;;;;;;;2.24;65.7168;961.9417;;;;
2019/04/12 06:32:48;;;;;;;14.7;11.6;;;;;;;2.39;65.91895;961.9469;;;;
2019/04/12 06:35:14;;;;;;;15.3;11.4;;;;;;;2.55;64.02441;962.0072;;;;
2019/04/12 06:37:39;;;;;;;16.5;12;;;;;;;2.41;64.39746;962.0018;;;;
2019/04/12 06:40:04;;;;;;;18;12;;;;;;;2.35;66.00391;962.0173;;;;
2019/04/12 06:42:29;;;;;;;16.3;12;;;;;;;2.12;66.30664;961.9778;;;;
2019/04/12 06:44:54;;;;;;;16;11.9;;;;;;;2.3;67.14746;961.9814;;;;
2019/04/12 06:47:19;;;;;;;17.2;11.9;;;;;;;2.54;64.10059;961.9564;;;;
2019/04/12 06:49:44;;;;;;;17.4;11.8;;;;;;;2.6;64.09961;961.9573;;;;
2019/04/12 06:52:09;;;;;;;15.9;12.2;;;;;;;2.54;64.8125;961.9266;;;;
2019/04/12 06:54:34;;;;;;;18.4;12.1;;;;;;;2.61;65.36621;961.9314;;;;
2019/04/12 06:57:18;;;;;;;17.5;11.8;;;;;;;2.69;64.55371;961.9314;;;;
2019/04/12 06:59:25;;;;;;;17.5;11.9;;;;;;;2.84;63.53613;962.0093;;;;
2019/04/12 07:02:50;;;;;;;18.6;12.2;;;;;;;2.78;63.92383;961.9394;;;;
2019/04/12 07:04:29;;;;;;;17.3;12.8;;;;;;;2.83;65.19629;961.9067;;;;
2019/04/12 07:06:40;;;;;;;19;12.8;;;;;;;2.9;63.89551;961.9504;;;;
2019/04/12 07:09:06;;;;;;;18.8;12.4;;;;;;;2.9;64.6416;961.8386;;;;
2019/04/12 07:11:30;;;;;;;15.9;11.6;;;;;;;3.14;65.11816;961.899;;;;
2019/04/12 07:13:55;;;;;;;16.5;12.3;;;;;;;3.01;64.40918;961.9361;;;;
2019/04/12 07:16:20;;;;;;;18.2;12.2;;;;;;;3.15;63.08496;961.8814;;;;
2019/04/12 07:18:45;;;;;;;18.4;12.2;;;;;;;3.1;63.37109;961.9141;;;;
2019/04/12 07:21:10;;;;;;;18;12.2;;;;;;;3.26;65.46582;961.8795;;;;
2019/04/12 07:23:36;;;;;;;19;13;;;;;;;3.3;64.05859;961.8987;;;;
2019/04/12 07:26:01;;;;;;;17;12.1;;;;;;;3.39;64.79492;961.9457;;;;
2019/04/12 07:28:26;;;;;;;18.6;13.1;;;;;;;3.5;63.38574;961.9178;;;;
2019/04/12 07:30:51;;;;;;;18.2;13.2;;;;;;;3.6;63.33301;961.9167;;;;
2019/04/12 07:33:16;;;;;;;18.5;13.8;;;;;;;3.71;62.56738;961.8461;;;;
2019/04/12 07:35:41;;;;;;;20.5;14.6;;;;;;;3.87;60.6875;961.8501;;;;
2019/04/12 07:38:06;;;;;;;18.2;12.6;;;;;;;3.95;60.71191;961.901;;;;
2019/04/12 07:40:31;;;;;;;18.2;13.3;;;;;;;3.71;62.31836;961.9235;;;;
2019/04/12 07:42:57;;;;;;;20;14.2;;;;;;;3.86;60.50488;961.928;;;;
2019/04/12 07:45:22;;;;;;;20.8;15.5;;;;;;;3.97;61.24512;961.9474;;;;
2019/04/12 07:47:47;;;;;;;18;13.5;;;;;;;4.06;60.66895;961.955;;;;
2019/04/12 07:52:37;;;;;;;21.2;14.9;;;;;;;4.1;62.03613;961.9396;;;;
2019/04/12 07:55:12;;;;;;;18.5;14.4;;;;;;;4.23;61.70215;961.9408;;;;
2019/04/12 08:01:12;;;;;;;17.4;13.3;;;;;;;4.49;58.7334;961.9902;;;;
2019/04/12 08:03:46;;;;;;;18.5;12.7;;;;;;;4.47;58.85547;961.9227;;;;
2019/04/12 08:05:58;;;;;;;19.8;13.5;;;;;;;4.39;60.17188;961.9705;;;;
2019/04/12 08:08:17;;;;;;;17.5;12.5;;;;;;;4.58;58.34961;961.9975;;;;
2019/04/12 08:10:43;;;;;;;19.9;13.3;;;;;;;4.54;59.04688;961.9443;;;;
2019/04/12 08:13:08;;;;;;;18.4;13.8;;;;;;;4.68;59.50781;961.9919;;;;
2019/04/12 08:15:33;;;;;;;20.7;13.9;;;;;;;4.66;59.39258;961.9973;;;;
2019/04/12 08:17:58;;;;;;;18.5;13.5;;;;;;;4.92;59.14453;962.0117;;;;
2019/04/12 08:20:23;;;;;;;15.7;12.5;;;;;;;4.95;57.66113;961.9494;;;;
2019/04/12 08:22:49;;;;;;;16.4;13.5;;;;;;;5.01;57.66895;961.9331;;;;
2019/04/12 08:25:14;;;;;;;18.8;14.1;;;;;;;4.95;58.70605;961.9451;;;;
2019/04/12 08:27:40;;;;;;;18.3;13.7;;;;;;;5.07;58.5166;961.9511;;;;
2019/04/12 08:30:05;;;;;;;24.9;20.2;;;;;;;4.94;58.43164;961.9462;;;;
2019/04/12 08:32:30;;;;;;;21.3;16.4;;;;;;;5.03;59.21875;961.9529;;;;
2019/04/12 08:34:55;;;;;;;18.6;14.3;;;;;;;5.28;57.28516;961.9894;;;;
2019/04/12 08:37:20;;;;;;;17.6;13.2;;;;;;;5.38;56.71777;961.9014;;;;
2019/04/12 08:39:45;;;;;;;19.7;14.3;;;;;;;5.43;56.87207;961.9369;;;;
2019/04/12 08:42:11;;;;;;;22.4;15.1;;;;;;;5.22;58.2207;961.9498;;;;
2019/04/12 08:44:36;;;;;;;21.2;14.6;;;;;;;5.38;55.75195;961.8883;;;;
2019/04/12 08:47:01;;;;;;;22.3;15.8;;;;;;;5.51;57.75879;961.8934;;;;
2019/04/12 08:49:26;;;;;;;18.7;14.5;;;;;;;5.48;58.63086;961.9207;;;;
2019/04/12 08:51:51;;;;;;;19.3;14;;;;;;;5.67;56.16406;961.8789;;;;
2019/04/12 08:54:16;;;;;;;19.6;15.1;;;;;;;5.8;55.26074;961.8915;;;;
2019/04/12 08:56:42;;;;;;;19.7;15.5;;;;;;;5.79;56.07813;961.8152;;;;
2019/04/12 08:59:07;;;;;;;20.8;15.2;;;;;;;5.97;55.2832;961.8334;;;;
2019/04/12 09:01:32;;;;;;;21.9;15.4;;;;;;;6;55.32031;961.8273;;;;
2019/04/12 09:03:57;;;;;;;17.3;14.6;;;;;;;6.25;54.04297;961.8325;;;;
2019/04/12 09:06:23;;;;;;;20.2;15;;;;;;;6.39;54.72168;961.8273;;;;
2019/04/12 09:09:11;;;;;;;27.1;15.6;;;;;;;6.48;54.75488;961.8258;;;;
2019/04/12 09:11:14;;;;;;;20;14.6;;;;;;;6.77;53.90234;961.832;;;;
2019/04/12 09:13:39;;;;;;;22.6;16.4;;;;;;;6.74;55.18848;961.8253;;;;
2019/04/12 09:16:04;;;;;;;22.7;15.9;;;;;;;6.77;53.60645;961.8061;;;;
2019/04/12 09:18:32;;;;;;;19.5;14.5;;;;;;;6.91;52.35742;961.8049;;;;
2019/04/12 09:23:25;;;;;;;17.6;14.4;;;;;;;7.43;51.38086;961.7122;;;;
2019/04/12 09:25:51;;;;;;;18.5;14.5;;;;;;;7.61;49.93945;961.7904;;;;
2019/04/12 09:28:09;;;;;;;20.6;14.7;;;;;;;7.51;50.46484;961.7717;;;;
2019/04/12 09:30:35;;;;;;;20.5;15.2;;;;;;;7.42;51.69922;961.7131;;;;
2019/04/12 09:33:00;;;;;;;20.5;15.3;;;;;;;7.58;50.50781;961.7319;;;;
2019/04/12 09:35:25;;;;;;;18.7;15.3;;;;;;;7.45;53.13184;961.7154;;;;
2019/04/12 09:37:51;;;;;;;21.1;15.6;;;;;;;7.53;50.39844;961.7397;;;;
2019/04/12 09:40:16;;;;;;;23.5;16.1;;;;;;;7.38;50.40332;961.6853;;;;
2019/04/12 09:42:41;;;;;;;21.1;15.3;;;;;;;7.12;51.87988;961.6694;;;;
2019/04/12 09:45:06;;;;;;;20;15.9;;;;;;;7.15;52.6709;961.715;;;;
2019/04/12 09:47:31;;;;;;;21.1;16.5;;;;;;;7.32;51.11719;961.7286;;;;
2019/04/12 09:49:57;;;;;;;22.4;16.5;;;;;;;7.51;51.34473;961.754;;;;
2019/04/12 09:52:22;;;;;;;21.3;15.6;;;;;;;7.71;50.04102;961.6103;;;;
2019/04/12 09:54:47;;;;;;;19.3;15.9;;;;;;;8.01;49.37891;961.6834;;;;
2019/04/12 09:57:12;;;;;;;21;16.3;;;;;;;7.98;48.65527;961.6857;;;;
2019/04/12 11:09:35;;;;;;;22.1;16.4;;;;;;;10.41;45.39746;961.3083;;;;
2019/04/12 11:12:00;;;;;;;21.4;16.5;;;;;;;10.73;45.06348;961.2425;;;;
2019/04/12 11:14:25;;;;;;;19.1;16.6;;;;;;;10.84;42.42676;961.3109;;;;
2019/04/12 11:16:51;;;;;;;19.4;16.9;;;;;;;10.87;42.5791;961.2692;;;;
2019/04/12 11:19:16;;;;;;;20.4;16.4;;;;;;;10.99;41.81738;961.19;;;;
2019/04/12 11:21:41;;;;;;;20.7;16.1;;;;;;;10.78;42.75391;961.1948;;;;
2019/04/12 11:24:07;;;;;;;23.3;17.3;;;;;;;10.44;44.48047;961.206;;;;
2019/04/12 11:26:32;;;;;;;20.5;16.8;;;;;;;10.52;42.70508;961.2037;;;;
2019/04/12 11:28:57;;;;;;;22;17.1;;;;;;;10.33;43.25;961.1631;;;;
2019/04/12 11:31:23;;;;;;;24.4;17.5;;;;;;;10.39;43.37207;961.175;;;;
2019/04/12 11:33:48;;;;;;;20.4;16.9;;;;;;;10.75;43.2002;961.1102;;;;
2019/04/12 11:36:13;;;;;;;21.6;16.7;;;;;;;11.19;43.0127;961.168;;;;
2019/04/12 11:38:38;;;;;;;22.4;17.4;;;;;;;11.39;40.92383;961.1454;;;;
2019/04/12 11:41:03;;;;;;;20.8;16.4;;;;;;;11.39;42.25;961.1976;;;;
2019/04/12 11:43:28;;;;;;;20;16.6;;;;;;;11.1;41.96777;961.128;;;;
2019/04/12 11:45:53;;;;;;;20.1;17.1;;;;;;;10.93;43.30957;961.2035;;;;
2019/04/12 11:48:18;;;;;;;22.6;17.6;;;;;;;10.59;43.49512;961.1974;;;;
2019/04/12 11:50:43;;;;;;;21.9;17.9;;;;;;;10.33;44.67578;961.1199;;;;
2019/04/12 11:53:08;;;;;;;22.2;17.5;;;;;;;10.9;45.81836;961.1622;;;;
2019/04/12 11:55:34;;;;;;;23.3;18;;;;;;;10.94;42.63184;961.1848;;;;
2019/04/12 11:57:59;;;;;;;22.3;17.8;;;;;;;10.89;41.81934;961.1202;;;;
2019/04/12 12:00:35;;;;;;;21.2;18.1;;;;;;;10.5;42.28906;961.2011;;;;
2019/04/12 12:03:01;;;;;;;24.7;18.9;;;;;;;10.2;42.74219;961.2434;;;;
2019/04/12 12:07:44;;;;;;;22;18.3;;;;;;;10.05;43.70508;961.2644;;;;
2019/04/12 12:10:18;;;;;;;22;18.6;;;;;;;9.89;44.0918;961.238;;;;
2019/04/12 12:14:59;;;;;;;20.3;18;;;;;;;9.75;42.97363;961.2587;;;;
2019/04/12 12:17:34;;;;;;;26.1;19.3;;;;;;;9.68;43.42676;961.2986;;;;
2019/04/12 12:19:44;;;;;;;23.3;18;;;;;;;9.63;43.31641;961.3118;;;;
2019/04/12 12:22:10;;;;;;;23.6;18.1;;;;;;;9.5;45.87695;961.2916;;;;
2019/04/12 12:24:35;;;;;;;25.3;19;;;;;;;9.53;45.17969;961.2542;;;;
2019/04/12 12:27:00;;;;;;;21.6;17.9;;;;;;;9.54;45.2041;961.2795;;;;
2019/04/12 12:29:28;;;;;;;23.6;18.4;;;;;;;9.54;43.91797;961.2839;;;;
2019/04/12 12:31:53;;;;;;;22.4;17.8;;;;;;;9.68;42.89746;961.3206;;;;
2019/04/12 12:34:18;;;;;;;22.1;17.7;;;;;;;9.75;43.07715;961.2717;;;;
2019/04/12 12:36:43;;;;;;;24.2;19.1;;;;;;;9.69;43.37012;961.3024;;;;
2019/04/12 12:39:08;;;;;;;24.9;18.8;;;;;;;9.54;43.95215;961.2885;;;;
2019/04/12 12:41:33;;;;;;;21.7;18.4;;;;;;;9.52;44.76465;961.2645;;;;
2019/04/12 12:43:58;;;;;;;22.6;18.1;;;;;;;9.58;44.70313;961.2719;;;;
2019/04/12 12:46:23;;;;;;;23.1;18.4;;;;;;;9.62;44.60254;961.2817;;;;
2019/04/12 12:48:49;;;;;;;23.9;18.8;;;;;;;9.56;45.18164;961.2825;;;;
2019/04/12 12:51:14;;;;;;;22.2;19.1;;;;;;;9.47;44.65625;961.255;;;;
2019/04/12 12:53:39;;;;;;;22.5;19;;;;;;;9.51;44.5791;961.2999;;;;
2019/04/12 12:56:04;;;;;;;23.7;18.9;;;;;;;9.54;43.49219;961.2103;;;;
2019/04/12 12:58:29;;;;;;;21.9;18.2;;;;;;;9.63;43.97266;961.2333;;;;
2019/04/12 13:00:54;;;;;;;22.9;18.6;;;;;;;9.75;42.52637;961.1497;;;;
2019/04/12 13:03:20;;;;;;;23.2;19;;;;;;;9.9;43.05859;961.2766;;;;
2019/04/12 13:05:45;;;;;;;22.6;17.8;;;;;;;9.93;42.1875;961.2266;;;;
2019/04/12 13:08:10;;;;;;;23.3;18.8;;;;;;;9.94;41.59082;961.2645;;;;
2019/04/12 13:10:35;;;;;;;22.7;18.9;;;;;;;9.89;40.98828;961.2859;;;;
2019/04/12 13:13:00;;;;;;;23.4;18.3;;;;;;;9.89;41.82715;961.2558;;;;
2019/04/12 13:15:25;;;;;;;22.5;19.3;;;;;;;9.89;43.53906;961.3298;;;;
2019/04/12 13:17:50;;;;;;;24.2;19.5;;;;;;;9.93;41.72754;961.2697;;;;
2019/04/12 13:20:15;;;;;;;22.7;19.1;;;;;;;9.92;41.49609;961.2793;;;;
2019/04/12 13:22:41;;;;;;;24.5;18.1;;;;;;;9.88;41.82715;961.2695;;;;
2019/04/12 13:25:06;;;;;;;23.2;18.3;;;;;;;10.11;40.74512;961.2463;;;;
2019/04/12 13:27:32;;;;;;;23.1;19.2;;;;;;;10.14;41.23145;961.222;;;;
2019/04/12 13:30:00;;;;;;;27.1;19.5;;;;;;;9.72;42.68359;961.2263;;;;
2019/04/12 13:32:32;;;;;;;27.3;20.1;;;;;;;9.48;43.54395;961.2369;;;;
2019/04/12 13:34:52;;;;;;;24.2;20.1;;;;;;;9.25;43.47461;961.2209;;;;
2019/04/12 13:37:53;;;;;;;27.6;20;;;;;;;9.33;42.20898;961.2703;;;;
2019/04/12 13:42:02;;;;;;;24.1;19.5;;;;;;;9.3;43.7207;961.1561;;;;
2019/04/12 13:44:27;;;;;;;26;21.3;;;;;;;9.19;45.2002;961.1997;;;;
2019/04/12 13:46:53;;;;;;;28;20.4;;;;;;;9.08;45.25781;961.1691;;;;
2019/04/12 13:49:18;;;;;;;29;20.4;;;;;;;9.2;42.26563;961.1894;;;;
2019/04/12 13:51:43;;;;;;;23.5;20;;;;;;;9.26;43.94629;961.1852;;;;
2019/04/12 13:54:08;;;;;;;25;19.5;;;;;;;9.49;43.32715;961.1752;;;;
2019/04/12 13:56:33;;;;;;;24.2;19.5;;;;;;;9.61;41.49023;961.166;;;;
2019/04/12 13:58:58;;;;;;;24.8;19.3;;;;;;;9.6;41.28223;961.1708;;;;
2019/04/12 14:01:23;;;;;;;24.7;19.2;;;;;;;9.52;41.40137;961.1213;;;;
2019/04/12 14:03:49;;;;;;;27.8;20.4;;;;;;;9.41;42.50391;961.0818;;;;
2019/04/12 14:06:14;;;;;;;24;19.6;;;;;;;9.63;40.42383;961.1031;;;;
2019/04/12 14:08:39;;;;;;;23;19.3;;;;;;;9.66;41.28809;961.0616;;;;
2019/04/12 14:11:05;;;;;;;23.6;19.7;;;;;;;9.69;42.30273;961.0722;;;;
2019/04/12 14:13:30;;;;;;;26.8;19.9;;;;;;;9.87;40.65332;961.0488;;;;
2019/04/12 14:15:56;;;;;;;25.6;19.6;;;;;;;9.81;42.0957;961.084;;;;
2019/04/12 14:18:21;;;;;;;26;20.6;;;;;;;9.68;40.97949;961.1213;;;;
2019/04/12 14:20:46;;;;;;;27.3;19.7;;;;;;;9.76;40.11426;961.1014;;;;
2019/04/12 14:23:11;;;;;;;25.3;20.5;;;;;;;9.66;42.8623;961.0572;;;;
2019/04/12 14:25:36;;;;;;;26.9;20.6;;;;;;;9.65;42.52734;961.1058;;;;
2019/04/12 14:28:01;;;;;;;23.9;19.8;;;;;;;9.76;41.89453;961.1322;;;;
2019/04/12 14:30:30;;;;;;;25.1;19.9;;;;;;;9.65;42.63086;961.158;;;;
2019/04/12 14:32:55;;;;;;;25.5;20;;;;;;;9.69;41.22266;961.1502;;;;
2019/04/12 14:35:30;;;;;;;25.6;20.5;;;;;;;9.58;43.01367;961.1075;;;;
2019/04/12 14:37:50;;;;;;;25.3;20;;;;;;;9.49;43.05176;961.1142;;;;
2019/04/12 14:40:06;;;;;;;24.6;19.9;;;;;;;9.59;41.22461;961.1458;;;;
2019/04/12 14:42:31;;;;;;;23.2;19;;;;;;;9.57;43.80566;961.1903;;;;
2019/04/12 14:45:07;;;;;;;23.6;19.3;;;;;;;9.59;42.51074;961.1581;;;;
2019/04/12 14:47:34;;;;;;;23;18.6;;;;;;;9.49;40.36523;961.2142;;;;
2019/04/12 14:49:48;;;;;;;22.2;17.7;;;;;;;9.27;41.67578;961.1972;;;;
2019/04/12 14:52:13;;;;;;;21.7;17.9;;;;;;;9.19;41.98828;961.2079;;;;
2019/04/12 14:54:39;;;;;;;23.2;17.9;;;;;;;9.12;42.39453;961.157;;;;
2019/04/12 14:57:04;;;;;;;20.9;17.2;;;;;;;9.1;43.76953;961.1714;;;;
2019/04/12 14:59:29;;;;;;;23;18;;;;;;;9.09;41.94531;961.194;;;;
2019/04/12 15:01:54;;;;;;;22.6;17.7;;;;;;;8.98;42.70215;961.2112;;;;
2019/04/12 15:04:19;;;;;;;23;17.6;;;;;;;8.8;42.12305;961.2037;;;;
2019/04/12 15:06:45;;;;;;;21.2;17;;;;;;;8.89;41.53613;961.2101;;;;
2019/04/12 15:09:10;;;;;;;22.3;16.5;;;;;;;8.95;41.69043;961.1753;;;;
2019/04/12 15:11:35;;;;;;;22.4;17.1;;;;;;;8.88;42.08496;961.1541;;;;
2019/04/12 15:14:00;;;;;;;24.3;17.6;;;;;;;8.81;42.74316;961.1509;;;;
2019/04/12 15:16:25;;;;;;;21.8;17.1;;;;;;;8.91;42.99316;961.2122;;;;
2019/04/12 15:18:50;;;;;;;21.7;17.3;;;;;;;8.9;42.10938;961.2396;;;;
2019/04/12 15:21:15;;;;;;;23.1;16.4;;;;;;;8.96;41.20898;961.2999;;;;
2019/04/12 15:23:41;;;;;;;21.9;16.9;;;;;;;8.82;41.89551;961.2756;;;;
2019/04/12 15:26:06;;;;;;;22.3;16.7;;;;;;;8.64;42.65723;961.311;;;;
2019/04/12 15:28:31;;;;;;;19.1;15.8;;;;;;;8.7;42.125;961.298;;;;
2019/04/12 15:30:56;;;;;;;22.6;17.1;;;;;;;8.65;42.61133;961.2634;;;;
2019/04/12 15:33:21;;;;;;;23.4;17.2;;;;;;;8.45;43.38281;961.3176;;;;
2019/04/12 15:35:46;;;;;;;22.4;16.4;;;;;;;8.53;42.875;961.2852;;;;
2019/04/12 15:38:11;;;;;;;23.2;17.2;;;;;;;8.43;42.78516;961.2974;;;;
2019/04/12 15:40:36;;;;;;;20.9;16.2;;;;;;;8.39;42.73438;961.2833;;;;
2019/04/12 15:43:01;;;;;;;20.8;17;;;;;;;8.21;43.06152;961.3524;;;;